sensor_id;sensor_type;location;lat;lon;timestamp;P1;durP1;ratioP1;P2;durP2;ratioP2
5845;SDS011;2949;50.778;7.094;2023-08-20T00:00:09;16.47;;;11.20;;
5845;SDS011;2949;50.778;7.094;2023-08-20T00:02:36;15.57;;;11.13;;
5845;SDS011;2949;50.778;7.094;2023-08-20T00:05:02;13.33;;;11.30;;
5845;SDS011;2949;50.778;7.094;2023-08-20T00:07:29;16.80;;;11.23;;
5845;SDS011;2949;50.778;7.094;2023-08-20T00:09:56;13.03;;;11.70;;
5845;SDS011;2949;50.778;7.094;2023-08-20T00:12:22;15.40;;;11.60;;
5845;SDS011;2949;50.778;7.094;2023-08-20T00:14:55;13.43;;;11.23;;
5845;SDS011;2949;50.778;7.094;2023-08-20T00:17:21;20.83;;;10.67;;
5845;SDS011;2949;50.778;7.094;2023-08-20T00:19:49;18.27;;;11.17;;
5845;SDS011;2949;50.778;7.094;2023-08-20T00:22:15;21.27;;;11.00;;
5845;SDS011;2949;50.778;7.094;2023-08-20T00:24:42;16.27;;;10.80;;
5845;SDS011;2949;50.778;7.094;2023-08-20T00:27:08;15.23;;;10.97;;
5845;SDS011;2949;50.778;7.094;2023-08-20T00:29:33;15.67;;;11.27;;
5845;SDS011;2949;50.778;7.094;2023-08-20T00:31:59;15.37;;;11.07;;
5845;SDS011;2949;50.778;7.094;2023-08-20T00:34:24;14.37;;;11.80;;
5845;SDS011;2949;50.778;7.094;2023-08-20T00:36:50;18.20;;;11.30;;
5845;SDS011;2949;50.778;7.094;2023-08-20T00:39:15;18.43;;;12.27;;
5845;SDS011;2949;50.778;7.094;2023-08-20T00:41:41;17.20;;;12.07;;
5845;SDS011;2949;50.778;7.094;2023-08-20T00:44:06;18.83;;;11.27;;
5845;SDS011;2949;50.778;7.094;2023-08-20T00:46:32;15.30;;;10.97;;
5845;SDS011;2949;50.778;7.094;2023-08-20T00:48:57;20.07;;;12.50;;
5845;SDS011;2949;50.778;7.094;2023-08-20T00:51:23;14.23;;;12.10;;
5845;SDS011;2949;50.778;7.094;2023-08-20T00:53:50;17.37;;;11.50;;
5845;SDS011;2949;50.778;7.094;2023-08-20T00:56:16;15.80;;;11.70;;
5845;SDS011;2949;50.778;7.094;2023-08-20T00:58:41;15.73;;;12.07;;
5845;SDS011;2949;50.778;7.094;2023-08-20T01:01:07;17.40;;;12.33;;
5845;SDS011;2949;50.778;7.094;2023-08-20T01:03:33;19.57;;;12.43;;
5845;SDS011;2949;50.778;7.094;2023-08-20T01:06:06;20.47;;;13.40;;
5845;SDS011;2949;50.778;7.094;2023-08-20T01:08:56;15.53;;;12.70;;
5845;SDS011;2949;50.778;7.094;2023-08-20T01:11:33;16.87;;;11.50;;
5845;SDS011;2949;50.778;7.094;2023-08-20T01:14:13;14.93;;;11.43;;
5845;SDS011;2949;50.778;7.094;2023-08-20T01:16:40;14.10;;;11.57;;
5845;SDS011;2949;50.778;7.094;2023-08-20T01:19:06;14.90;;;10.33;;
5845;SDS011;2949;50.778;7.094;2023-08-20T01:21:38;17.03;;;11.63;;
5845;SDS011;2949;50.778;7.094;2023-08-20T01:27:16;14.97;;;11.40;;
5845;SDS011;2949;50.778;7.094;2023-08-20T01:30:06;17.30;;;10.80;;
5845;SDS011;2949;50.778;7.094;2023-08-20T01:32:33;16.47;;;10.90;;
5845;SDS011;2949;50.778;7.094;2023-08-20T01:34:59;20.50;;;10.93;;
5845;SDS011;2949;50.778;7.094;2023-08-20T01:37:25;22.77;;;12.43;;
5845;SDS011;2949;50.778;7.094;2023-08-20T01:39:50;17.13;;;11.27;;
5845;SDS011;2949;50.778;7.094;2023-08-20T01:42:16;13.47;;;10.73;;
5845;SDS011;2949;50.778;7.094;2023-08-20T01:44:41;23.00;;;12.37;;
5845;SDS011;2949;50.778;7.094;2023-08-20T01:47:07;14.40;;;11.97;;
5845;SDS011;2949;50.778;7.094;2023-08-20T01:49:32;20.73;;;12.40;;
5845;SDS011;2949;50.778;7.094;2023-08-20T01:51:58;17.43;;;12.40;;
5845;SDS011;2949;50.778;7.094;2023-08-20T01:54:23;19.00;;;14.20;;
5845;SDS011;2949;50.778;7.094;2023-08-20T01:56:49;21.97;;;13.53;;
5845;SDS011;2949;50.778;7.094;2023-08-20T01:59:14;23.67;;;14.53;;
5845;SDS011;2949;50.778;7.094;2023-08-20T02:01:40;22.83;;;15.17;;
5845;SDS011;2949;50.778;7.094;2023-08-20T02:04:05;20.70;;;15.83;;
5845;SDS011;2949;50.778;7.094;2023-08-20T02:06:31;22.10;;;14.70;;
5845;SDS011;2949;50.778;7.094;2023-08-20T02:08:56;30.53;;;13.50;;
5845;SDS011;2949;50.778;7.094;2023-08-20T02:11:22;27.90;;;16.00;;
5845;SDS011;2949;50.778;7.094;2023-08-20T02:13:48;26.30;;;15.30;;
5845;SDS011;2949;50.778;7.094;2023-08-20T02:16:13;20.00;;;15.10;;
5845;SDS011;2949;50.778;7.094;2023-08-20T02:18:41;23.00;;;15.07;;
5845;SDS011;2949;50.778;7.094;2023-08-20T02:21:06;23.50;;;15.23;;
5845;SDS011;2949;50.778;7.094;2023-08-20T02:23:32;25.00;;;15.53;;
5845;SDS011;2949;50.778;7.094;2023-08-20T02:25:57;22.60;;;16.30;;
5845;SDS011;2949;50.778;7.094;2023-08-20T02:28:23;26.27;;;16.17;;
5845;SDS011;2949;50.778;7.094;2023-08-20T02:30:48;21.07;;;14.37;;
5845;SDS011;2949;50.778;7.094;2023-08-20T02:33:14;24.43;;;14.43;;
5845;SDS011;2949;50.778;7.094;2023-08-20T02:35:40;24.83;;;14.20;;
5845;SDS011;2949;50.778;7.094;2023-08-20T02:38:06;23.13;;;14.20;;
5845;SDS011;2949;50.778;7.094;2023-08-20T02:40:31;21.20;;;15.90;;
5845;SDS011;2949;50.778;7.094;2023-08-20T02:42:57;24.27;;;15.00;;
5845;SDS011;2949;50.778;7.094;2023-08-20T02:45:23;16.97;;;13.00;;
5845;SDS011;2949;50.778;7.094;2023-08-20T02:47:49;22.43;;;15.13;;
5845;SDS011;2949;50.778;7.094;2023-08-20T02:50:15;16.97;;;13.23;;
5845;SDS011;2949;50.778;7.094;2023-08-20T02:52:41;24.00;;;14.93;;
5845;SDS011;2949;50.778;7.094;2023-08-20T02:55:07;28.60;;;16.00;;
5845;SDS011;2949;50.778;7.094;2023-08-20T02:57:33;22.90;;;14.60;;
5845;SDS011;2949;50.778;7.094;2023-08-20T02:59:58;30.20;;;14.60;;
5845;SDS011;2949;50.778;7.094;2023-08-20T03:02:24;24.60;;;14.30;;
5845;SDS011;2949;50.778;7.094;2023-08-20T03:04:49;25.47;;;17.33;;
5845;SDS011;2949;50.778;7.094;2023-08-20T03:07:15;22.10;;;16.30;;
5845;SDS011;2949;50.778;7.094;2023-08-20T03:09:40;29.50;;;17.53;;
5845;SDS011;2949;50.778;7.094;2023-08-20T03:12:06;31.87;;;18.97;;
5845;SDS011;2949;50.778;7.094;2023-08-20T03:14:32;30.63;;;18.10;;
5845;SDS011;2949;50.778;7.094;2023-08-20T03:16:57;26.90;;;16.60;;
5845;SDS011;2949;50.778;7.094;2023-08-20T03:19:23;29.53;;;18.47;;
5845;SDS011;2949;50.778;7.094;2023-08-20T03:21:48;30.30;;;16.93;;
5845;SDS011;2949;50.778;7.094;2023-08-20T03:24:14;34.13;;;18.93;;
5845;SDS011;2949;50.778;7.094;2023-08-20T03:26:39;30.37;;;18.17;;
5845;SDS011;2949;50.778;7.094;2023-08-20T03:29:05;31.67;;;19.80;;
5845;SDS011;2949;50.778;7.094;2023-08-20T03:31:31;28.37;;;16.57;;
5845;SDS011;2949;50.778;7.094;2023-08-20T03:33:56;25.67;;;16.83;;
5845;SDS011;2949;50.778;7.094;2023-08-20T03:36:22;29.83;;;17.30;;
5845;SDS011;2949;50.778;7.094;2023-08-20T03:38:47;33.40;;;17.97;;
5845;SDS011;2949;50.778;7.094;2023-08-20T03:41:13;29.30;;;17.57;;
5845;SDS011;2949;50.778;7.094;2023-08-20T03:43:39;30.93;;;19.97;;
5845;SDS011;2949;50.778;7.094;2023-08-20T03:46:04;28.43;;;17.50;;
5845;SDS011;2949;50.778;7.094;2023-08-20T03:48:30;28.43;;;16.33;;
5845;SDS011;2949;50.778;7.094;2023-08-20T03:50:55;27.93;;;16.07;;
5845;SDS011;2949;50.778;7.094;2023-08-20T03:53:21;23.70;;;15.77;;
5845;SDS011;2949;50.778;7.094;2023-08-20T03:55:47;25.63;;;16.83;;
5845;SDS011;2949;50.778;7.094;2023-08-20T03:58:13;26.47;;;16.80;;
5845;SDS011;2949;50.778;7.094;2023-08-20T04:00:39;24.50;;;16.33;;
5845;SDS011;2949;50.778;7.094;2023-08-20T04:03:04;25.87;;;15.77;;
5845;SDS011;2949;50.778;7.094;2023-08-20T04:05:35;25.83;;;17.17;;
5845;SDS011;2949;50.778;7.094;2023-08-20T04:08:04;32.13;;;15.63;;
5845;SDS011;2949;50.778;7.094;2023-08-20T04:10:31;33.67;;;18.53;;
5845;SDS011;2949;50.778;7.094;2023-08-20T04:12:56;29.17;;;16.67;;
5845;SDS011;2949;50.778;7.094;2023-08-20T04:15:22;26.17;;;16.03;;
5845;SDS011;2949;50.778;7.094;2023-08-20T04:17:48;24.20;;;17.30;;
5845;SDS011;2949;50.778;7.094;2023-08-20T04:20:14;26.33;;;14.33;;
5845;SDS011;2949;50.778;7.094;2023-08-20T04:22:39;22.27;;;14.60;;
5845;SDS011;2949;50.778;7.094;2023-08-20T04:25:05;22.53;;;15.90;;
5845;SDS011;2949;50.778;7.094;2023-08-20T04:27:31;26.03;;;15.40;;
5845;SDS011;2949;50.778;7.094;2023-08-20T04:29:57;23.10;;;14.10;;
5845;SDS011;2949;50.778;7.094;2023-08-20T04:32:22;21.83;;;14.23;;
5845;SDS011;2949;50.778;7.094;2023-08-20T04:34:48;20.70;;;14.50;;
5845;SDS011;2949;50.778;7.094;2023-08-20T04:37:14;21.50;;;14.70;;
5845;SDS011;2949;50.778;7.094;2023-08-20T04:39:40;20.73;;;15.27;;
5845;SDS011;2949;50.778;7.094;2023-08-20T04:42:06;20.53;;;14.07;;
5845;SDS011;2949;50.778;7.094;2023-08-20T04:44:31;22.53;;;13.60;;
5845;SDS011;2949;50.778;7.094;2023-08-20T04:46:57;22.63;;;13.93;;
5845;SDS011;2949;50.778;7.094;2023-08-20T04:49:22;22.07;;;15.17;;
5845;SDS011;2949;50.778;7.094;2023-08-20T04:51:51;19.53;;;14.53;;
5845;SDS011;2949;50.778;7.094;2023-08-20T04:54:16;28.63;;;16.50;;
5845;SDS011;2949;50.778;7.094;2023-08-20T04:56:42;27.43;;;16.53;;
5845;SDS011;2949;50.778;7.094;2023-08-20T04:59:07;20.50;;;15.60;;
5845;SDS011;2949;50.778;7.094;2023-08-20T05:01:32;20.30;;;14.03;;
5845;SDS011;2949;50.778;7.094;2023-08-20T05:03:58;22.70;;;14.13;;
5845;SDS011;2949;50.778;7.094;2023-08-20T05:06:24;20.30;;;14.43;;
5845;SDS011;2949;50.778;7.094;2023-08-20T05:08:49;15.63;;;13.93;;
5845;SDS011;2949;50.778;7.094;2023-08-20T05:11:14;18.93;;;13.87;;
5845;SDS011;2949;50.778;7.094;2023-08-20T05:13:40;25.17;;;12.60;;
5845;SDS011;2949;50.778;7.094;2023-08-20T05:16:06;16.10;;;12.50;;
5845;SDS011;2949;50.778;7.094;2023-08-20T05:18:31;19.40;;;11.40;;
5845;SDS011;2949;50.778;7.094;2023-08-20T05:20:56;23.20;;;12.80;;
5845;SDS011;2949;50.778;7.094;2023-08-20T05:23:22;17.33;;;11.80;;
5845;SDS011;2949;50.778;7.094;2023-08-20T05:25:47;18.67;;;11.10;;
5845;SDS011;2949;50.778;7.094;2023-08-20T05:28:13;13.40;;;10.80;;
5845;SDS011;2949;50.778;7.094;2023-08-20T05:30:39;16.23;;;10.97;;
5845;SDS011;2949;50.778;7.094;2023-08-20T05:33:05;16.30;;;9.73;;
5845;SDS011;2949;50.778;7.094;2023-08-20T05:35:31;16.67;;;11.60;;
5845;SDS011;2949;50.778;7.094;2023-08-20T05:37:57;14.30;;;10.60;;
5845;SDS011;2949;50.778;7.094;2023-08-20T05:40:23;15.93;;;10.70;;
5845;SDS011;2949;50.778;7.094;2023-08-20T05:42:48;10.80;;;9.53;;
5845;SDS011;2949;50.778;7.094;2023-08-20T05:45:14;11.43;;;10.03;;
5845;SDS011;2949;50.778;7.094;2023-08-20T05:47:40;10.10;;;8.60;;
5845;SDS011;2949;50.778;7.094;2023-08-20T05:50:06;13.23;;;9.03;;
5845;SDS011;2949;50.778;7.094;2023-08-20T05:52:32;12.70;;;9.30;;
5845;SDS011;2949;50.778;7.094;2023-08-20T05:54:58;11.67;;;8.90;;
5845;SDS011;2949;50.778;7.094;2023-08-20T05:57:24;10.13;;;8.57;;
5845;SDS011;2949;50.778;7.094;2023-08-20T05:59:50;11.53;;;8.07;;
5845;SDS011;2949;50.778;7.094;2023-08-20T06:02:16;12.23;;;8.70;;
5845;SDS011;2949;50.778;7.094;2023-08-20T06:04:43;9.83;;;7.27;;
5845;SDS011;2949;50.778;7.094;2023-08-20T06:07:09;16.40;;;7.30;;
5845;SDS011;2949;50.778;7.094;2023-08-20T06:09:35;9.30;;;7.87;;
5845;SDS011;2949;50.778;7.094;2023-08-20T06:12:01;11.03;;;7.53;;
5845;SDS011;2949;50.778;7.094;2023-08-20T06:14:27;8.87;;;7.17;;
5845;SDS011;2949;50.778;7.094;2023-08-20T06:16:53;18.40;;;7.80;;
5845;SDS011;2949;50.778;7.094;2023-08-20T06:19:19;10.03;;;7.40;;
5845;SDS011;2949;50.778;7.094;2023-08-20T06:21:45;12.23;;;7.97;;
5845;SDS011;2949;50.778;7.094;2023-08-20T06:24:10;11.07;;;8.80;;
5845;SDS011;2949;50.778;7.094;2023-08-20T06:26:36;12.33;;;8.93;;
5845;SDS011;2949;50.778;7.094;2023-08-20T06:29:02;11.43;;;7.30;;
5845;SDS011;2949;50.778;7.094;2023-08-20T06:31:28;16.47;;;9.50;;
5845;SDS011;2949;50.778;7.094;2023-08-20T06:33:54;11.00;;;7.80;;
5845;SDS011;2949;50.778;7.094;2023-08-20T06:36:20;11.83;;;7.60;;
5845;SDS011;2949;50.778;7.094;2023-08-20T06:38:46;14.77;;;9.30;;
5845;SDS011;2949;50.778;7.094;2023-08-20T06:41:12;12.87;;;9.00;;
5845;SDS011;2949;50.778;7.094;2023-08-20T06:43:38;15.50;;;8.33;;
5845;SDS011;2949;50.778;7.094;2023-08-20T06:46:04;12.27;;;8.07;;
5845;SDS011;2949;50.778;7.094;2023-08-20T06:48:30;13.60;;;7.33;;
5845;SDS011;2949;50.778;7.094;2023-08-20T06:50:56;12.33;;;6.63;;
5845;SDS011;2949;50.778;7.094;2023-08-20T06:53:22;15.53;;;8.70;;
5845;SDS011;2949;50.778;7.094;2023-08-20T06:55:48;12.80;;;8.80;;
5845;SDS011;2949;50.778;7.094;2023-08-20T06:58:14;13.80;;;9.87;;
5845;SDS011;2949;50.778;7.094;2023-08-20T07:00:40;13.40;;;10.20;;
5845;SDS011;2949;50.778;7.094;2023-08-20T07:03:06;15.20;;;9.93;;
5845;SDS011;2949;50.778;7.094;2023-08-20T07:05:32;17.80;;;12.27;;
5845;SDS011;2949;50.778;7.094;2023-08-20T07:07:58;17.03;;;11.20;;
5845;SDS011;2949;50.778;7.094;2023-08-20T07:10:24;16.33;;;12.00;;
5845;SDS011;2949;50.778;7.094;2023-08-20T07:12:50;15.80;;;10.40;;
5845;SDS011;2949;50.778;7.094;2023-08-20T07:15:16;13.57;;;8.00;;
5845;SDS011;2949;50.778;7.094;2023-08-20T07:17:42;12.90;;;10.10;;
5845;SDS011;2949;50.778;7.094;2023-08-20T07:20:08;11.77;;;10.10;;
5845;SDS011;2949;50.778;7.094;2023-08-20T07:22:34;20.53;;;11.10;;
5845;SDS011;2949;50.778;7.094;2023-08-20T07:25:00;14.17;;;9.43;;
5845;SDS011;2949;50.778;7.094;2023-08-20T07:27:26;13.23;;;9.73;;
5845;SDS011;2949;50.778;7.094;2023-08-20T07:29:52;14.73;;;9.77;;
5845;SDS011;2949;50.778;7.094;2023-08-20T07:32:18;19.75;;;10.57;;
5845;SDS011;2949;50.778;7.094;2023-08-20T07:34:44;14.10;;;9.95;;
5845;SDS011;2949;50.778;7.094;2023-08-20T07:37:10;16.00;;;10.38;;
5845;SDS011;2949;50.778;7.094;2023-08-20T07:39:36;12.45;;;10.10;;
5845;SDS011;2949;50.778;7.094;2023-08-20T07:42:02;13.30;;;10.70;;
5845;SDS011;2949;50.778;7.094;2023-08-20T07:44:28;12.00;;;10.25;;
5845;SDS011;2949;50.778;7.094;2023-08-20T07:46:54;10.88;;;8.68;;
5845;SDS011;2949;50.778;7.094;2023-08-20T07:49:20;15.80;;;10.75;;
5845;SDS011;2949;50.778;7.094;2023-08-20T07:51:46;14.52;;;9.65;;
5845;SDS011;2949;50.778;7.094;2023-08-20T07:54:13;12.25;;;10.23;;
5845;SDS011;2949;50.778;7.094;2023-08-20T07:56:39;16.55;;;10.02;;
5845;SDS011;2949;50.778;7.094;2023-08-20T07:59:05;15.20;;;10.63;;
5845;SDS011;2949;50.778;7.094;2023-08-20T08:01:31;13.85;;;10.30;;
5845;SDS011;2949;50.778;7.094;2023-08-20T08:03:57;13.07;;;8.73;;
5845;SDS011;2949;50.778;7.094;2023-08-20T08:06:23;13.02;;;9.90;;
5845;SDS011;2949;50.778;7.094;2023-08-20T08:08:49;15.60;;;9.32;;
5845;SDS011;2949;50.778;7.094;2023-08-20T08:11:15;14.68;;;10.25;;
5845;SDS011;2949;50.778;7.094;2023-08-20T08:13:41;15.35;;;9.88;;
5845;SDS011;2949;50.778;7.094;2023-08-20T08:16:06;20.92;;;10.85;;
5845;SDS011;2949;50.778;7.094;2023-08-20T08:18:32;15.23;;;10.18;;
5845;SDS011;2949;50.778;7.094;2023-08-20T08:20:57;13.35;;;7.90;;
5845;SDS011;2949;50.778;7.094;2023-08-20T08:23:23;12.13;;;8.30;;
5845;SDS011;2949;50.778;7.094;2023-08-20T08:25:48;14.00;;;8.35;;
5845;SDS011;2949;50.778;7.094;2023-08-20T08:28:14;11.77;;;7.65;;
5845;SDS011;2949;50.778;7.094;2023-08-20T08:30:39;9.07;;;8.07;;
5845;SDS011;2949;50.778;7.094;2023-08-20T08:33:05;9.13;;;6.15;;
5845;SDS011;2949;50.778;7.094;2023-08-20T08:35:30;7.80;;;7.00;;
5845;SDS011;2949;50.778;7.094;2023-08-20T08:37:56;8.13;;;6.13;;
5845;SDS011;2949;50.778;7.094;2023-08-20T08:40:22;10.98;;;6.57;;
5845;SDS011;2949;50.778;7.094;2023-08-20T08:42:52;7.45;;;6.28;;
5845;SDS011;2949;50.778;7.094;2023-08-20T08:45:18;11.07;;;6.35;;
5845;SDS011;2949;50.778;7.094;2023-08-20T08:47:45;9.18;;;6.32;;
5845;SDS011;2949;50.778;7.094;2023-08-20T08:50:11;8.73;;;6.20;;
5845;SDS011;2949;50.778;7.094;2023-08-20T08:52:37;8.90;;;6.13;;
5845;SDS011;2949;50.778;7.094;2023-08-20T08:55:05;7.95;;;5.50;;
5845;SDS011;2949;50.778;7.094;2023-08-20T08:57:33;8.05;;;5.45;;
5845;SDS011;2949;50.778;7.094;2023-08-20T09:00:00;5.03;;;4.13;;
5845;SDS011;2949;50.778;7.094;2023-08-20T09:02:25;7.80;;;5.32;;
5845;SDS011;2949;50.778;7.094;2023-08-20T09:04:51;6.00;;;4.90;;
5845;SDS011;2949;50.778;7.094;2023-08-20T09:07:17;5.32;;;4.35;;
5845;SDS011;2949;50.778;7.094;2023-08-20T09:09:43;8.60;;;5.28;;
5845;SDS011;2949;50.778;7.094;2023-08-20T09:12:17;6.55;;;4.20;;
5845;SDS011;2949;50.778;7.094;2023-08-20T09:14:45;5.97;;;3.88;;
5845;SDS011;2949;50.778;7.094;2023-08-20T09:17:12;4.32;;;3.92;;
5845;SDS011;2949;50.778;7.094;2023-08-20T09:19:38;7.03;;;4.30;;
5845;SDS011;2949;50.778;7.094;2023-08-20T09:22:04;5.68;;;4.50;;
5845;SDS011;2949;50.778;7.094;2023-08-20T09:24:33;4.95;;;3.80;;
5845;SDS011;2949;50.778;7.094;2023-08-20T09:27:04;4.47;;;4.07;;
5845;SDS011;2949;50.778;7.094;2023-08-20T09:29:33;5.50;;;4.47;;
5845;SDS011;2949;50.778;7.094;2023-08-20T09:32:26;4.80;;;4.40;;
5845;SDS011;2949;50.778;7.094;2023-08-20T09:34:53;6.85;;;3.83;;
5845;SDS011;2949;50.778;7.094;2023-08-20T09:37:20;4.05;;;3.75;;
5845;SDS011;2949;50.778;7.094;2023-08-20T09:39:49;4.72;;;3.60;;
5845;SDS011;2949;50.778;7.094;2023-08-20T09:42:15;3.78;;;3.47;;
5845;SDS011;2949;50.778;7.094;2023-08-20T09:44:42;9.43;;;3.67;;
5845;SDS011;2949;50.778;7.094;2023-08-20T09:47:10;4.40;;;3.25;;
5845;SDS011;2949;50.778;7.094;2023-08-20T09:49:38;4.93;;;4.38;;
5845;SDS011;2949;50.778;7.094;2023-08-20T09:52:10;8.68;;;4.25;;
5845;SDS011;2949;50.778;7.094;2023-08-20T09:54:50;6.72;;;4.25;;
5845;SDS011;2949;50.778;7.094;2023-08-20T09:57:37;5.05;;;4.18;;
5845;SDS011;2949;50.778;7.094;2023-08-20T10:00:04;5.53;;;4.35;;
5845;SDS011;2949;50.778;7.094;2023-08-20T10:02:31;5.97;;;4.93;;
5845;SDS011;2949;50.778;7.094;2023-08-20T10:04:58;5.63;;;5.03;;
5845;SDS011;2949;50.778;7.094;2023-08-20T10:07:28;7.10;;;4.93;;
5845;SDS011;2949;50.778;7.094;2023-08-20T10:09:56;7.28;;;5.32;;
5845;SDS011;2949;50.778;7.094;2023-08-20T10:12:27;6.05;;;5.05;;
5845;SDS011;2949;50.778;7.094;2023-08-20T10:14:53;5.15;;;4.60;;
5845;SDS011;2949;50.778;7.094;2023-08-20T10:17:21;12.45;;;8.48;;
5845;SDS011;2949;50.778;7.094;2023-08-20T10:19:47;18.90;;;12.38;;
5845;SDS011;2949;50.778;7.094;2023-08-20T10:22:13;5.82;;;5.22;;
5845;SDS011;2949;50.778;7.094;2023-08-20T10:24:49;8.38;;;5.60;;
5845;SDS011;2949;50.778;7.094;2023-08-20T10:27:26;7.22;;;5.80;;
5845;SDS011;2949;50.778;7.094;2023-08-20T10:29:53;6.93;;;5.25;;
5845;SDS011;2949;50.778;7.094;2023-08-20T10:32:19;5.57;;;5.07;;
5845;SDS011;2949;50.778;7.094;2023-08-20T10:34:49;6.50;;;5.00;;
5845;SDS011;2949;50.778;7.094;2023-08-20T10:37:20;7.05;;;5.38;;
5845;SDS011;2949;50.778;7.094;2023-08-20T10:39:56;5.68;;;4.68;;
5845;SDS011;2949;50.778;7.094;2023-08-20T10:42:25;6.93;;;5.32;;
5845;SDS011;2949;50.778;7.094;2023-08-20T10:45:08;7.13;;;5.60;;
5845;SDS011;2949;50.778;7.094;2023-08-20T10:47:41;6.65;;;5.55;;
5845;SDS011;2949;50.778;7.094;2023-08-20T10:50:08;5.90;;;5.40;;
5845;SDS011;2949;50.778;7.094;2023-08-20T10:52:46;14.50;;;5.75;;
5845;SDS011;2949;50.778;7.094;2023-08-20T10:55:13;5.30;;;4.80;;
5845;SDS011;2949;50.778;7.094;2023-08-20T10:57:39;8.07;;;5.28;;
5845;SDS011;2949;50.778;7.094;2023-08-20T11:00:05;10.93;;;5.80;;
5845;SDS011;2949;50.778;7.094;2023-08-20T11:02:39;8.57;;;6.50;;
5845;SDS011;2949;50.778;7.094;2023-08-20T11:05:15;6.68;;;6.00;;
5845;SDS011;2949;50.778;7.094;2023-08-20T11:07:42;7.60;;;6.70;;
5845;SDS011;2949;50.778;7.094;2023-08-20T11:10:08;8.97;;;6.57;;
5845;SDS011;2949;50.778;7.094;2023-08-20T11:12:35;10.93;;;6.53;;
5845;SDS011;2949;50.778;7.094;2023-08-20T11:15:03;9.40;;;6.30;;
5845;SDS011;2949;50.778;7.094;2023-08-20T11:17:29;7.53;;;6.13;;
5845;SDS011;2949;50.778;7.094;2023-08-20T11:19:55;19.20;;;6.13;;
5845;SDS011;2949;50.778;7.094;2023-08-20T11:22:21;7.10;;;6.40;;
5845;SDS011;2949;50.778;7.094;2023-08-20T11:24:47;7.40;;;6.50;;
5845;SDS011;2949;50.778;7.094;2023-08-20T11:27:13;6.77;;;6.17;;
5845;SDS011;2949;50.778;7.094;2023-08-20T11:29:41;6.70;;;5.93;;
5845;SDS011;2949;50.778;7.094;2023-08-20T11:32:11;8.17;;;7.03;;
5845;SDS011;2949;50.778;7.094;2023-08-20T11:34:37;7.40;;;6.40;;
5845;SDS011;2949;50.778;7.094;2023-08-20T11:37:04;10.37;;;7.27;;
5845;SDS011;2949;50.778;7.094;2023-08-20T11:39:30;10.87;;;6.93;;
5845;SDS011;2949;50.778;7.094;2023-08-20T11:41:56;9.33;;;6.77;;
5845;SDS011;2949;50.778;7.094;2023-08-20T11:44:24;10.10;;;7.30;;
5845;SDS011;2949;50.778;7.094;2023-08-20T11:46:51;9.27;;;7.07;;
5845;SDS011;2949;50.778;7.094;2023-08-20T11:49:17;11.93;;;6.43;;
5845;SDS011;2949;50.778;7.094;2023-08-20T11:51:49;13.33;;;7.27;;
5845;SDS011;2949;50.778;7.094;2023-08-20T11:54:16;8.00;;;7.20;;
5845;SDS011;2949;50.778;7.094;2023-08-20T11:56:49;7.53;;;6.83;;
5845;SDS011;2949;50.778;7.094;2023-08-20T11:59:16;9.37;;;7.20;;
5845;SDS011;2949;50.778;7.094;2023-08-20T12:01:42;10.30;;;7.00;;
5845;SDS011;2949;50.778;7.094;2023-08-20T12:04:09;13.77;;;8.10;;
5845;SDS011;2949;50.778;7.094;2023-08-20T12:06:35;8.20;;;7.03;;
5845;SDS011;2949;50.778;7.094;2023-08-20T12:09:01;7.43;;;6.67;;
5845;SDS011;2949;50.778;7.094;2023-08-20T12:11:30;8.57;;;6.83;;
5845;SDS011;2949;50.778;7.094;2023-08-20T12:13:58;11.93;;;7.93;;
5845;SDS011;2949;50.778;7.094;2023-08-20T12:16:24;9.93;;;7.77;;
5845;SDS011;2949;50.778;7.094;2023-08-20T12:18:50;7.73;;;6.83;;
5845;SDS011;2949;50.778;7.094;2023-08-20T12:21:17;7.87;;;6.30;;
5845;SDS011;2949;50.778;7.094;2023-08-20T12:23:43;8.63;;;6.87;;
5845;SDS011;2949;50.778;7.094;2023-08-20T12:26:09;8.80;;;7.20;;
5845;SDS011;2949;50.778;7.094;2023-08-20T12:28:35;10.97;;;7.33;;
5845;SDS011;2949;50.778;7.094;2023-08-20T12:31:01;9.57;;;7.70;;
5845;SDS011;2949;50.778;7.094;2023-08-20T12:33:28;8.67;;;7.67;;
5845;SDS011;2949;50.778;7.094;2023-08-20T12:35:54;10.70;;;7.27;;
5845;SDS011;2949;50.778;7.094;2023-08-20T12:38:21;10.63;;;8.47;;
5845;SDS011;2949;50.778;7.094;2023-08-20T12:40:47;8.10;;;7.30;;
5845;SDS011;2949;50.778;7.094;2023-08-20T12:43:13;10.37;;;8.10;;
5845;SDS011;2949;50.778;7.094;2023-08-20T12:45:39;12.93;;;7.50;;
5845;SDS011;2949;50.778;7.094;2023-08-20T12:48:05;10.90;;;7.87;;
5845;SDS011;2949;50.778;7.094;2023-08-20T12:50:32;17.03;;;8.53;;
5845;SDS011;2949;50.778;7.094;2023-08-20T12:52:58;9.83;;;7.67;;
5845;SDS011;2949;50.778;7.094;2023-08-20T12:55:24;9.20;;;7.83;;
5845;SDS011;2949;50.778;7.094;2023-08-20T12:57:54;8.03;;;7.20;;
5845;SDS011;2949;50.778;7.094;2023-08-20T13:00:21;9.20;;;8.20;;
5845;SDS011;2949;50.778;7.094;2023-08-20T13:02:47;10.23;;;7.63;;
5845;SDS011;2949;50.778;7.094;2023-08-20T13:05:13;9.20;;;8.10;;
5845;SDS011;2949;50.778;7.094;2023-08-20T13:07:39;16.53;;;8.13;;
5845;SDS011;2949;50.778;7.094;2023-08-20T13:10:06;11.00;;;8.07;;
5845;SDS011;2949;50.778;7.094;2023-08-20T13:12:33;13.50;;;8.90;;
5845;SDS011;2949;50.778;7.094;2023-08-20T13:14:59;12.13;;;7.80;;
5845;SDS011;2949;50.778;7.094;2023-08-20T13:17:25;10.43;;;8.60;;
5845;SDS011;2949;50.778;7.094;2023-08-20T13:19:51;13.40;;;7.93;;
5845;SDS011;2949;50.778;7.094;2023-08-20T13:22:17;9.53;;;8.00;;
5845;SDS011;2949;50.778;7.094;2023-08-20T13:24:43;8.10;;;7.30;;
5845;SDS011;2949;50.778;7.094;2023-08-20T13:27:09;9.30;;;8.00;;
5845;SDS011;2949;50.778;7.094;2023-08-20T13:29:35;9.40;;;7.57;;
5845;SDS011;2949;50.778;7.094;2023-08-20T13:32:01;11.03;;;7.50;;
5845;SDS011;2949;50.778;7.094;2023-08-20T13:34:27;10.03;;;7.77;;
5845;SDS011;2949;50.778;7.094;2023-08-20T13:36:53;9.30;;;7.67;;
5845;SDS011;2949;50.778;7.094;2023-08-20T13:39:19;9.80;;;7.53;;
5845;SDS011;2949;50.778;7.094;2023-08-20T13:41:46;8.20;;;6.67;;
5845;SDS011;2949;50.778;7.094;2023-08-20T13:44:12;10.30;;;6.80;;
5845;SDS011;2949;50.778;7.094;2023-08-20T13:46:38;10.13;;;7.70;;
5845;SDS011;2949;50.778;7.094;2023-08-20T13:49:04;12.13;;;7.40;;
5845;SDS011;2949;50.778;7.094;2023-08-20T13:51:30;7.47;;;6.77;;
5845;SDS011;2949;50.778;7.094;2023-08-20T13:53:56;11.37;;;7.47;;
5845;SDS011;2949;50.778;7.094;2023-08-20T13:56:22;9.07;;;6.67;;
5845;SDS011;2949;50.778;7.094;2023-08-20T13:58:49;7.80;;;6.40;;
5845;SDS011;2949;50.778;7.094;2023-08-20T14:01:15;6.73;;;6.10;;
5845;SDS011;2949;50.778;7.094;2023-08-20T14:03:41;7.97;;;5.87;;
5845;SDS011;2949;50.778;7.094;2023-08-20T14:06:07;8.77;;;6.17;;
5845;SDS011;2949;50.778;7.094;2023-08-20T14:08:33;8.13;;;6.90;;
5845;SDS011;2949;50.778;7.094;2023-08-20T14:10:59;10.93;;;6.40;;
5845;SDS011;2949;50.778;7.094;2023-08-20T14:13:25;6.40;;;5.67;;
5845;SDS011;2949;50.778;7.094;2023-08-20T14:15:51;14.10;;;6.20;;
5845;SDS011;2949;50.778;7.094;2023-08-20T14:18:17;7.60;;;6.03;;
5845;SDS011;2949;50.778;7.094;2023-08-20T14:20:43;12.03;;;6.57;;
5845;SDS011;2949;50.778;7.094;2023-08-20T14:23:08;6.53;;;5.90;;
5845;SDS011;2949;50.778;7.094;2023-08-20T14:25:34;13.63;;;6.20;;
5845;SDS011;2949;50.778;7.094;2023-08-20T14:28:00;9.80;;;6.17;;
5845;SDS011;2949;50.778;7.094;2023-08-20T14:30:27;6.20;;;5.63;;
5845;SDS011;2949;50.778;7.094;2023-08-20T14:32:53;7.57;;;6.37;;
5845;SDS011;2949;50.778;7.094;2023-08-20T14:35:19;7.00;;;6.40;;
5845;SDS011;2949;50.778;7.094;2023-08-20T14:37:45;7.90;;;5.87;;
5845;SDS011;2949;50.778;7.094;2023-08-20T14:40:11;5.87;;;4.97;;
5845;SDS011;2949;50.778;7.094;2023-08-20T14:42:37;6.97;;;5.70;;
5845;SDS011;2949;50.778;7.094;2023-08-20T14:45:04;7.30;;;5.70;;
5845;SDS011;2949;50.778;7.094;2023-08-20T14:47:30;9.23;;;6.47;;
5845;SDS011;2949;50.778;7.094;2023-08-20T14:49:56;5.93;;;5.43;;
5845;SDS011;2949;50.778;7.094;2023-08-20T14:52:22;7.13;;;6.00;;
5845;SDS011;2949;50.778;7.094;2023-08-20T14:54:48;6.73;;;5.10;;
5845;SDS011;2949;50.778;7.094;2023-08-20T14:57:14;6.17;;;5.57;;
5845;SDS011;2949;50.778;7.094;2023-08-20T14:59:42;6.47;;;5.30;;